sensor_id;sensor_type;location;lat;lon;timestamp;P1;durP1;ratioP1;P2;durP2;ratioP2
39880;SDS011;25554;44.954;10.068;2022-09-20T00:00:20;6.40;;;4.22;;
39880;SDS011;25554;44.954;10.068;2022-09-20T00:02:46;9.00;;;4.47;;
39880;SDS011;25554;44.954;10.068;2022-09-20T00:05:12;6.28;;;4.22;;
39880;SDS011;25554;44.954;10.068;2022-09-20T00:07:38;10.45;;;5.18;;
39880;SDS011;25554;44.954;10.068;2022-09-20T00:10:08;10.13;;;4.95;;
39880;SDS011;25554;44.954;10.068;2022-09-20T00:12:34;7.25;;;4.63;;
39880;SDS011;25554;44.954;10.068;2022-09-20T00:15:01;8.85;;;4.82;;
39880;SDS011;25554;44.954;10.068;2022-09-20T00:17:27;8.52;;;5.38;;
39880;SDS011;25554;44.954;10.068;2022-09-20T00:19:53;7.88;;;5.07;;
39880;SDS011;25554;44.954;10.068;2022-09-20T00:22:20;8.50;;;5.80;;
39880;SDS011;25554;44.954;10.068;2022-09-20T00:24:46;9.95;;;4.95;;
39880;SDS011;25554;44.954;10.068;2022-09-20T00:27:12;7.93;;;5.22;;
39880;SDS011;25554;44.954;10.068;2022-09-20T00:29:38;10.23;;;5.35;;
39880;SDS011;25554;44.954;10.068;2022-09-20T00:32:05;8.85;;;5.45;;
39880;SDS011;25554;44.954;10.068;2022-09-20T00:34:31;7.05;;;4.82;;
39880;SDS011;25554;44.954;10.068;2022-09-20T00:37:16;10.50;;;6.15;;
39880;SDS011;25554;44.954;10.068;2022-09-20T00:39:42;7.55;;;6.03;;
39880;SDS011;25554;44.954;10.068;2022-09-20T00:42:11;9.02;;;6.40;;
39880;SDS011;25554;44.954;10.068;2022-09-20T00:47:37;7.65;;;6.40;;
39880;SDS011;25554;44.954;10.068;2022-09-20T00:50:15;11.73;;;7.15;;
39880;SDS011;25554;44.954;10.068;2022-09-20T00:55:32;18.10;;;7.60;;
39880;SDS011;25554;44.954;10.068;2022-09-20T00:58:00;9.30;;;6.53;;
39880;SDS011;25554;44.954;10.068;2022-09-20T01:02:55;10.93;;;6.85;;
39880;SDS011;25554;44.954;10.068;2022-09-20T01:05:23;9.20;;;7.00;;
39880;SDS011;25554;44.954;10.068;2022-09-20T01:07:50;10.70;;;7.50;;
39880;SDS011;25554;44.954;10.068;2022-09-20T01:10:18;11.50;;;7.43;;
39880;SDS011;25554;44.954;10.068;2022-09-20T01:12:44;9.27;;;7.25;;
39880;SDS011;25554;44.954;10.068;2022-09-20T01:15:12;9.88;;;7.30;;
39880;SDS011;25554;44.954;10.068;2022-09-20T01:17:42;11.45;;;7.60;;
39880;SDS011;25554;44.954;10.068;2022-09-20T01:26:35;9.95;;;7.03;;
39880;SDS011;25554;44.954;10.068;2022-09-20T01:28:46;8.43;;;6.40;;
39880;SDS011;25554;44.954;10.068;2022-09-20T01:34:01;13.38;;;6.75;;
39880;SDS011;25554;44.954;10.068;2022-09-20T01:36:36;12.18;;;6.78;;
39880;SDS011;25554;44.954;10.068;2022-09-20T01:39:15;9.88;;;6.95;;
39880;SDS011;25554;44.954;10.068;2022-09-20T01:41:58;10.85;;;6.47;;
39880;SDS011;25554;44.954;10.068;2022-09-20T01:44:54;8.73;;;7.07;;
39880;SDS011;25554;44.954;10.068;2022-09-20T01:50:11;10.57;;;7.82;;
39880;SDS011;25554;44.954;10.068;2022-09-20T02:03:34;11.55;;;7.05;;
39880;SDS011;25554;44.954;10.068;2022-09-20T02:12:27;11.25;;;7.60;;
39880;SDS011;25554;44.954;10.068;2022-09-20T02:17:33;11.88;;;7.05;;
39880;SDS011;25554;44.954;10.068;2022-09-20T02:20:10;8.00;;;6.53;;
39880;SDS011;25554;44.954;10.068;2022-09-20T02:23:00;11.02;;;6.35;;
39880;SDS011;25554;44.954;10.068;2022-09-20T02:26:16;10.18;;;6.07;;
39880;SDS011;25554;44.954;10.068;2022-09-20T02:45:25;8.00;;;4.95;;
39880;SDS011;25554;44.954;10.068;2022-09-20T02:48:27;7.03;;;4.63;;
39880;SDS011;25554;44.954;10.068;2022-09-20T02:51:04;6.85;;;4.60;;
39880;SDS011;25554;44.954;10.068;2022-09-20T02:53:45;7.88;;;4.75;;
39880;SDS011;25554;44.954;10.068;2022-09-20T03:05:16;10.05;;;5.03;;
39880;SDS011;25554;44.954;10.068;2022-09-20T03:10:36;7.90;;;4.30;;
39880;SDS011;25554;44.954;10.068;2022-09-20T03:33:54;9.10;;;4.75;;
39880;SDS011;25554;44.954;10.068;2022-09-20T03:42:35;7.72;;;4.65;;
39880;SDS011;25554;44.954;10.068;2022-09-20T03:59:00;6.70;;;4.68;;
39880;SDS011;25554;44.954;10.068;2022-09-20T04:01:43;11.15;;;4.90;;
39880;SDS011;25554;44.954;10.068;2022-09-20T04:04:24;8.13;;;4.50;;
39880;SDS011;25554;44.954;10.068;2022-09-20T04:09:31;7.35;;;4.80;;
39880;SDS011;25554;44.954;10.068;2022-09-20T04:12:24;6.43;;;4.68;;
39880;SDS011;25554;44.954;10.068;2022-09-20T04:21:25;6.15;;;4.32;;
39880;SDS011;25554;44.954;10.068;2022-09-20T04:26:29;11.02;;;5.38;;
39880;SDS011;25554;44.954;10.068;2022-09-20T04:34:42;6.50;;;4.03;;
39880;SDS011;25554;44.954;10.068;2022-09-20T04:37:38;5.93;;;4.53;;
39880;SDS011;25554;44.954;10.068;2022-09-20T04:59:09;6.55;;;4.88;;
39880;SDS011;25554;44.954;10.068;2022-09-20T05:02:17;7.18;;;4.35;;
39880;SDS011;25554;44.954;10.068;2022-09-20T05:15:59;8.98;;;4.63;;
39880;SDS011;25554;44.954;10.068;2022-09-20T05:29:50;8.65;;;4.25;;
39880;SDS011;25554;44.954;10.068;2022-09-20T05:32:29;10.27;;;4.45;;
39880;SDS011;25554;44.954;10.068;2022-09-20T05:35:15;6.95;;;4.60;;
39880;SDS011;25554;44.954;10.068;2022-09-20T05:37:56;9.90;;;5.65;;
39880;SDS011;25554;44.954;10.068;2022-09-20T05:41:02;12.55;;;4.78;;
39880;SDS011;25554;44.954;10.068;2022-09-20T05:43:45;9.65;;;5.32;;
39880;SDS011;25554;44.954;10.068;2022-09-20T05:54:54;10.90;;;5.57;;
39880;SDS011;25554;44.954;10.068;2022-09-20T06:00:47;8.90;;;5.38;;
39880;SDS011;25554;44.954;10.068;2022-09-20T06:03:29;8.05;;;5.32;;
39880;SDS011;25554;44.954;10.068;2022-09-20T06:16:48;12.10;;;4.40;;
39880;SDS011;25554;44.954;10.068;2022-09-20T06:27:00;5.78;;;3.53;;
39880;SDS011;25554;44.954;10.068;2022-09-20T06:30:00;7.05;;;3.50;;
39880;SDS011;25554;44.954;10.068;2022-09-20T06:32:30;7.63;;;3.97;;
39880;SDS011;25554;44.954;10.068;2022-09-20T06:34:58;5.57;;;3.45;;
39880;SDS011;25554;44.954;10.068;2022-09-20T06:37:30;10.13;;;4.32;;
39880;SDS011;25554;44.954;10.068;2022-09-20T06:43:16;6.50;;;4.07;;
39880;SDS011;25554;44.954;10.068;2022-09-20T06:45:44;6.78;;;3.63;;
39880;SDS011;25554;44.954;10.068;2022-09-20T06:48:10;8.52;;;3.97;;
39880;SDS011;25554;44.954;10.068;2022-09-20T06:50:38;7.32;;;3.85;;
39880;SDS011;25554;44.954;10.068;2022-09-20T06:53:04;9.10;;;4.00;;
39880;SDS011;25554;44.954;10.068;2022-09-20T06:55:33;4.07;;;3.42;;
39880;SDS011;25554;44.954;10.068;2022-09-20T06:58:03;9.43;;;3.70;;
39880;SDS011;25554;44.954;10.068;2022-09-20T07:00:30;5.13;;;3.60;;
39880;SDS011;25554;44.954;10.068;2022-09-20T07:05:22;5.93;;;3.78;;
39880;SDS011;25554;44.954;10.068;2022-09-20T07:07:57;6.88;;;3.45;;
39880;SDS011;25554;44.954;10.068;2022-09-20T07:10:25;6.32;;;3.80;;
39880;SDS011;25554;44.954;10.068;2022-09-20T07:12:58;4.80;;;2.88;;
39880;SDS011;25554;44.954;10.068;2022-09-20T07:15:32;5.85;;;3.10;;
39880;SDS011;25554;44.954;10.068;2022-09-20T07:17:59;10.93;;;4.25;;
39880;SDS011;25554;44.954;10.068;2022-09-20T07:20:26;8.63;;;3.60;;
39880;SDS011;25554;44.954;10.068;2022-09-20T07:22:52;7.18;;;3.88;;
39880;SDS011;25554;44.954;10.068;2022-09-20T07:25:19;5.63;;;3.65;;
39880;SDS011;25554;44.954;10.068;2022-09-20T07:27:47;4.43;;;2.95;;
39880;SDS011;25554;44.954;10.068;2022-09-20T07:30:15;7.43;;;3.35;;
39880;SDS011;25554;44.954;10.068;2022-09-20T07:32:43;9.07;;;2.95;;
39880;SDS011;25554;44.954;10.068;2022-09-20T07:35:10;8.02;;;2.92;;
39880;SDS011;25554;44.954;10.068;2022-09-20T07:37:37;7.78;;;2.72;;
39880;SDS011;25554;44.954;10.068;2022-09-20T07:40:06;8.30;;;2.63;;
39880;SDS011;25554;44.954;10.068;2022-09-20T07:42:34;8.05;;;2.60;;
39880;SDS011;25554;44.954;10.068;2022-09-20T07:45:00;7.10;;;2.60;;
39880;SDS011;25554;44.954;10.068;2022-09-20T07:47:28;3.35;;;2.42;;
39880;SDS011;25554;44.954;10.068;2022-09-20T07:49:57;3.35;;;2.40;;
39880;SDS011;25554;44.954;10.068;2022-09-20T07:52:23;11.70;;;3.22;;
39880;SDS011;25554;44.954;10.068;2022-09-20T07:54:50;5.75;;;3.22;;
39880;SDS011;25554;44.954;10.068;2022-09-20T07:59:42;7.32;;;2.60;;
39880;SDS011;25554;44.954;10.068;2022-09-20T08:02:12;7.80;;;2.70;;
39880;SDS011;25554;44.954;10.068;2022-09-20T08:04:39;5.90;;;2.03;;
39880;SDS011;25554;44.954;10.068;2022-09-20T08:07:06;5.80;;;2.22;;
39880;SDS011;25554;44.954;10.068;2022-09-20T08:09:32;6.50;;;2.55;;
39880;SDS011;25554;44.954;10.068;2022-09-20T08:11:58;7.65;;;2.30;;
39880;SDS011;25554;44.954;10.068;2022-09-20T08:14:24;5.10;;;2.60;;
39880;SDS011;25554;44.954;10.068;2022-09-20T08:16:51;3.35;;;1.92;;
39880;SDS011;25554;44.954;10.068;2022-09-20T08:19:21;6.32;;;2.40;;
39880;SDS011;25554;44.954;10.068;2022-09-20T08:21:48;4.72;;;2.80;;
39880;SDS011;25554;44.954;10.068;2022-09-20T08:24:17;8.25;;;2.20;;
39880;SDS011;25554;44.954;10.068;2022-09-20T08:26:43;8.40;;;3.13;;
39880;SDS011;25554;44.954;10.068;2022-09-20T08:29:10;10.40;;;2.50;;
39880;SDS011;25554;44.954;10.068;2022-09-20T08:31:37;6.40;;;2.20;;
39880;SDS011;25554;44.954;10.068;2022-09-20T08:34:05;6.55;;;2.85;;
39880;SDS011;25554;44.954;10.068;2022-09-20T08:36:34;8.77;;;1.95;;
39880;SDS011;25554;44.954;10.068;2022-09-20T08:39:04;5.20;;;1.80;;
39880;SDS011;25554;44.954;10.068;2022-09-20T08:41:34;4.68;;;2.30;;
39880;SDS011;25554;44.954;10.068;2022-09-20T08:46:51;8.70;;;2.75;;
39880;SDS011;25554;44.954;10.068;2022-09-20T08:49:28;5.22;;;2.25;;
39880;SDS011;25554;44.954;10.068;2022-09-20T08:51:55;7.80;;;2.72;;
39880;SDS011;25554;44.954;10.068;2022-09-20T08:54:26;7.43;;;2.47;;
39880;SDS011;25554;44.954;10.068;2022-09-20T08:56:56;8.05;;;2.55;;
39880;SDS011;25554;44.954;10.068;2022-09-20T08:59:23;7.75;;;2.70;;
39880;SDS011;25554;44.954;10.068;2022-09-20T09:01:50;7.68;;;2.45;;
39880;SDS011;25554;44.954;10.068;2022-09-20T09:04:22;6.43;;;2.38;;
39880;SDS011;25554;44.954;10.068;2022-09-20T09:06:50;6.15;;;2.03;;
39880;SDS011;25554;44.954;10.068;2022-09-20T09:09:18;8.82;;;2.30;;
39880;SDS011;25554;44.954;10.068;2022-09-20T09:11:48;3.97;;;1.92;;
39880;SDS011;25554;44.954;10.068;2022-09-20T09:14:29;4.50;;;1.90;;
39880;SDS011;25554;44.954;10.068;2022-09-20T09:17:17;5.55;;;1.90;;
39880;SDS011;25554;44.954;10.068;2022-09-20T09:19:52;6.82;;;1.70;;
39880;SDS011;25554;44.954;10.068;2022-09-20T09:22:44;3.70;;;1.40;;
39880;SDS011;25554;44.954;10.068;2022-09-20T09:30:21;3.17;;;1.60;;
39880;SDS011;25554;44.954;10.068;2022-09-20T09:32:51;5.28;;;1.70;;
39880;SDS011;25554;44.954;10.068;2022-09-20T09:35:37;2.63;;;1.65;;
39880;SDS011;25554;44.954;10.068;2022-09-20T09:38:04;8.82;;;3.58;;
39880;SDS011;25554;44.954;10.068;2022-09-20T09:40:31;9.85;;;3.15;;
39880;SDS011;25554;44.954;10.068;2022-09-20T09:42:58;6.38;;;2.00;;
39880;SDS011;25554;44.954;10.068;2022-09-20T09:47:57;5.55;;;1.80;;
39880;SDS011;25554;44.954;10.068;2022-09-20T09:50:26;5.57;;;1.98;;
39880;SDS011;25554;44.954;10.068;2022-09-20T09:53:09;4.85;;;2.03;;
39880;SDS011;25554;44.954;10.068;2022-09-20T09:58:34;10.00;;;1.92;;
39880;SDS011;25554;44.954;10.068;2022-09-20T10:07:11;8.43;;;2.28;;
39880;SDS011;25554;44.954;10.068;2022-09-20T10:12:27;5.38;;;2.30;;
39880;SDS011;25554;44.954;10.068;2022-09-20T10:15:12;4.78;;;2.25;;
39880;SDS011;25554;44.954;10.068;2022-09-20T10:32:08;7.15;;;2.10;;
39880;SDS011;25554;44.954;10.068;2022-09-20T10:40:37;3.83;;;2.38;;
39880;SDS011;25554;44.954;10.068;2022-09-20T10:46:37;3.03;;;2.50;;
39880;SDS011;25554;44.954;10.068;2022-09-20T11:00:48;3.80;;;2.20;;
39880;SDS011;25554;44.954;10.068;2022-09-20T11:08:25;5.47;;;2.35;;
39880;SDS011;25554;44.954;10.068;2022-09-20T11:10:58;4.38;;;1.73;;
39880;SDS011;25554;44.954;10.068;2022-09-20T11:29:48;4.75;;;1.73;;
39880;SDS011;25554;44.954;10.068;2022-09-20T11:32:25;3.88;;;1.70;;
39880;SDS011;25554;44.954;10.068;2022-09-20T11:35:02;5.22;;;1.77;;
39880;SDS011;25554;44.954;10.068;2022-09-20T11:37:43;4.18;;;1.60;;
39880;SDS011;25554;44.954;10.068;2022-09-20T11:40:16;5.35;;;2.03;;
39880;SDS011;25554;44.954;10.068;2022-09-20T11:42:58;3.30;;;1.75;;
39880;SDS011;25554;44.954;10.068;2022-09-20T11:45:26;6.70;;;2.28;;
39880;SDS011;25554;44.954;10.068;2022-09-20T11:47:59;4.20;;;1.98;;
39880;SDS011;25554;44.954;10.068;2022-09-20T11:56:37;4.13;;;2.00;;
39880;SDS011;25554;44.954;10.068;2022-09-20T11:59:05;3.55;;;1.83;;
39880;SDS011;25554;44.954;10.068;2022-09-20T12:01:46;2.42;;;1.77;;
39880;SDS011;25554;44.954;10.068;2022-09-20T12:04:19;9.30;;;1.92;;
39880;SDS011;25554;44.954;10.068;2022-09-20T12:09:44;5.40;;;2.15;;
39880;SDS011;25554;44.954;10.068;2022-09-20T12:15:00;6.10;;;2.22;;
39880;SDS011;25554;44.954;10.068;2022-09-20T12:28:47;4.22;;;1.67;;
39880;SDS011;25554;44.954;10.068;2022-09-20T12:36:37;3.08;;;2.30;;
39880;SDS011;25554;44.954;10.068;2022-09-20T12:41:47;5.63;;;1.67;;
39880;SDS011;25554;44.954;10.068;2022-09-20T12:52:23;6.15;;;2.53;;
39880;SDS011;25554;44.954;10.068;2022-09-20T13:11:13;2.47;;;1.30;;
39880;SDS011;25554;44.954;10.068;2022-09-20T13:22:13;4.32;;;1.40;;
39880;SDS011;25554;44.954;10.068;2022-09-20T13:24:46;6.43;;;1.77;;
39880;SDS011;25554;44.954;10.068;2022-09-20T13:27:25;3.65;;;1.92;;
39880;SDS011;25554;44.954;10.068;2022-09-20T13:35:17;4.37;;;1.37;;
39880;SDS011;25554;44.954;10.068;2022-09-20T13:37:50;3.47;;;1.10;;
39880;SDS011;25554;44.954;10.068;2022-09-20T13:40:23;1.67;;;1.00;;
39880;SDS011;25554;44.954;10.068;2022-09-20T13:42:51;2.47;;;0.65;;
39880;SDS011;25554;44.954;10.068;2022-09-20T13:45:20;1.60;;;0.70;;
39880;SDS011;25554;44.954;10.068;2022-09-20T13:47:48;3.88;;;0.95;;
39880;SDS011;25554;44.954;10.068;2022-09-20T13:52:44;2.30;;;1.00;;
39880;SDS011;25554;44.954;10.068;2022-09-20T13:55:29;2.00;;;1.00;;
39880;SDS011;25554;44.954;10.068;2022-09-20T13:57:59;1.15;;;1.05;;
39880;SDS011;25554;44.954;10.068;2022-09-20T14:00:29;1.90;;;1.40;;
39880;SDS011;25554;44.954;10.068;2022-09-20T14:02:57;1.60;;;1.25;;
39880;SDS011;25554;44.954;10.068;2022-09-20T14:05:24;2.78;;;1.10;;
39880;SDS011;25554;44.954;10.068;2022-09-20T14:07:53;3.67;;;1.20;;
39880;SDS011;25554;44.954;10.068;2022-09-20T14:12:53;2.78;;;1.65;;
39880;SDS011;25554;44.954;10.068;2022-09-20T14:15:20;3.03;;;1.60;;
39880;SDS011;25554;44.954;10.068;2022-09-20T14:17:47;3.03;;;1.77;;
39880;SDS011;25554;44.954;10.068;2022-09-20T14:20:16;5.53;;;1.65;;
39880;SDS011;25554;44.954;10.068;2022-09-20T14:22:43;4.65;;;1.67;;
39880;SDS011;25554;44.954;10.068;2022-09-20T14:27:39;2.20;;;1.50;;
39880;SDS011;25554;44.954;10.068;2022-09-20T14:32:40;4.00;;;1.40;;
39880;SDS011;25554;44.954;10.068;2022-09-20T14:37:48;5.45;;;2.00;;
39880;SDS011;25554;44.954;10.068;2022-09-20T14:42:47;3.15;;;1.30;;
39880;SDS011;25554;44.954;10.068;2022-09-20T14:53:22;3.60;;;1.67;;
39880;SDS011;25554;44.954;10.068;2022-09-20T14:58:30;2.45;;;1.23;;
39880;SDS011;25554;44.954;10.068;2022-09-20T15:01:12;3.58;;;1.35;;
39880;SDS011;25554;44.954;10.068;2022-09-20T15:03:43;2.65;;;1.25;;
39880;SDS011;25554;44.954;10.068;2022-09-20T15:06:10;2.22;;;1.33;;
39880;SDS011;25554;44.954;10.068;2022-09-20T15:08:38;2.60;;;1.70;;
39880;SDS011;25554;44.954;10.068;2022-09-20T15:11:04;3.85;;;1.65;;
39880;SDS011;25554;44.954;10.068;2022-09-20T15:13:31;3.97;;;1.20;;
39880;SDS011;25554;44.954;10.068;2022-09-20T15:15:57;4.20;;;1.48;;
39880;SDS011;25554;44.954;10.068;2022-09-20T15:20:52;6.38;;;2.05;;
39880;SDS011;25554;44.954;10.068;2022-09-20T15:23:19;4.00;;;1.75;;
39880;SDS011;25554;44.954;10.068;2022-09-20T15:25:49;5.32;;;1.55;;
39880;SDS011;25554;44.954;10.068;2022-09-20T15:28:17;3.33;;;1.40;;
39880;SDS011;25554;44.954;10.068;2022-09-20T15:30:49;4.43;;;1.33;;
39880;SDS011;25554;44.954;10.068;2022-09-20T15:33:16;6.68;;;1.40;;
39880;SDS011;25554;44.954;10.068;2022-09-20T15:35:44;6.53;;;1.10;;
39880;SDS011;25554;44.954;10.068;2022-09-20T15:38:11;4.25;;;1.35;;
39880;SDS011;25554;44.954;10.068;2022-09-20T15:40:42;2.40;;;0.98;;
39880;SDS011;25554;44.954;10.068;2022-09-20T15:43:12;3.13;;;0.88;;
39880;SDS011;25554;44.954;10.068;2022-09-20T15:45:46;3.42;;;1.30;;
39880;SDS011;25554;44.954;10.068;2022-09-20T15:48:15;1.52;;;1.13;;
39880;SDS011;25554;44.954;10.068;2022-09-20T15:53:32;4.22;;;1.17;;
39880;SDS011;25554;44.954;10.068;2022-09-20T15:56:01;3.45;;;1.10;;
39880;SDS011;25554;44.954;10.068;2022-09-20T15:58:31;2.25;;;0.98;;
39880;SDS011;25554;44.954;10.068;2022-09-20T16:01:05;3.40;;;1.13;;
39880;SDS011;25554;44.954;10.068;2022-09-20T16:03:33;4.05;;;1.30;;
39880;SDS011;25554;44.954;10.068;2022-09-20T16:06:03;3.75;;;1.00;;
39880;SDS011;25554;44.954;10.068;2022-09-20T16:08:31;7.07;;;1.13;;
39880;SDS011;25554;44.954;10.068;2022-09-20T16:10:59;3.33;;;1.20;;
39880;SDS011;25554;44.954;10.068;2022-09-20T16:15:55;3.03;;;1.55;;
39880;SDS011;25554;44.954;10.068;2022-09-20T16:18:23;2.83;;;1.00;;
39880;SDS011;25554;44.954;10.068;2022-09-20T16:21:09;4.32;;;1.00;;
39880;SDS011;25554;44.954;10.068;2022-09-20T16:23:38;5.80;;;1.00;;
39880;SDS011;25554;44.954;10.068;2022-09-20T16:26:05;2.78;;;0.93;;
39880;SDS011;25554;44.954;10.068;2022-09-20T16:28:46;2.70;;;0.98;;
39880;SDS011;25554;44.954;10.068;2022-09-20T16:34:22;2.70;;;1.13;;
39880;SDS011;25554;44.954;10.068;2022-09-20T16:39:30;2.17;;;0.95;;
39880;SDS011;25554;44.954;10.068;2022-09-20T16:41:57;6.18;;;1.30;;
39880;SDS011;25554;44.954;10.068;2022-09-20T16:44:30;1.88;;;1.00;;
39880;SDS011;25554;44.954;10.068;2022-09-20T16:46:57;3.67;;;2.20;;
39880;SDS011;25554;44.954;10.068;2022-09-20T16:49:24;3.05;;;1.10;;
39880;SDS011;25554;44.954;10.068;2022-09-20T16:51:53;2.80;;;1.00;;
39880;SDS011;25554;44.954;10.068;2022-09-20T16:54:20;2.90;;;1.13;;
39880;SDS011;25554;44.954;10.068;2022-09-20T16:56:47;8.07;;;1.30;;
39880;SDS011;25554;44.954;10.068;2022-09-20T16:59:15;3.17;;;1.48;;
39880;SDS011;25554;44.954;10.068;2022-09-20T17:01:43;2.17;;;1.05;;
39880;SDS011;25554;44.954;10.068;2022-09-20T17:06:39;7.55;;;3.13;;
39880;SDS011;25554;44.954;10.068;2022-09-20T17:09:07;4.88;;;2.00;;
39880;SDS011;25554;44.954;10.068;2022-09-20T17:11:36;8.48;;;2.03;;
39880;SDS011;25554;44.954;10.068;2022-09-20T17:14:04;5.13;;;2.22;;
39880;SDS011;25554;44.954;10.068;2022-09-20T17:16:32;9.80;;;2.38;;
39880;SDS011;25554;44.954;10.068;2022-09-20T17:19:01;6.40;;;2.50;;
39880;SDS011;25554;44.954;10.068;2022-09-20T17:21:32;5.75;;;1.90;;
39880;SDS011;25554;44.954;10.068;2022-09-20T17:24:00;6.22;;;1.45;;
39880;SDS011;25554;44.954;10.068;2022-09-20T17:26:29;3.10;;;1.90;;
39880;SDS011;25554;44.954;10.068;2022-09-20T17:28:58;5.57;;;2.08;;
39880;SDS011;25554;44.954;10.068;2022-09-20T17:31:30;9.38;;;3.92;;
39880;SDS011;25554;44.954;10.068;2022-09-20T17:34:01;5.38;;;2.10;;
39880;SDS011;25554;44.954;10.068;2022-09-20T17:36:33;5.25;;;1.40;;
39880;SDS011;25554;44.954;10.068;2022-09-20T17:39:04;6.97;;;1.48;;
39880;SDS011;25554;44.954;10.068;2022-09-20T17:41:33;5.22;;;1.73;;
39880;SDS011;25554;44.954;10.068;2022-09-20T17:44:01;6.03;;;1.50;;
39880;SDS011;25554;44.954;10.068;2022-09-20T17:46:33;6.00;;;2.13;;
39880;SDS011;25554;44.954;10.068;2022-09-20T17:49:05;7.75;;;3.45;;
39880;SDS011;25554;44.954;10.068;2022-09-20T17:51:39;8.40;;;3.90;;
39880;SDS011;25554;44.954;10.068;2022-09-20T17:54:09;7.00;;;3.25;;
39880;SDS011;25554;44.954;10.068;2022-09-20T17:56:39;7.00;;;2.30;;
39880;SDS011;25554;44.954;10.068;2022-09-20T17:59:07;6.55;;;2.80;;
39880;SDS011;25554;44.954;10.068;2022-09-20T18:01:35;9.77;;;2.10;;
39880;SDS011;25554;44.954;10.068;2022-09-20T18:04:05;6.22;;;3.00;;
39880;SDS011;25554;44.954;10.068;2022-09-20T18:06:46;9.38;;;2.30;;
39880;SDS011;25554;44.954;10.068;2022-09-20T18:09:15;6.00;;;3.88;;
39880;SDS011;25554;44.954;10.068;2022-09-20T18:11:47;6.40;;;2.58;;
39880;SDS011;25554;44.954;10.068;2022-09-20T18:14:16;8.40;;;2.65;;
39880;SDS011;25554;44.954;10.068;2022-09-20T18:16:44;7.65;;;3.67;;
39880;SDS011;25554;44.954;10.068;2022-09-20T18:19:12;12.65;;;3.92;;
39880;SDS011;25554;44.954;10.068;2022-09-20T18:21:40;12.68;;;5.53;;
39880;SDS011;25554;44.954;10.068;2022-09-20T18:24:08;9.05;;;4.63;;
39880;SDS011;25554;44.954;10.068;2022-09-20T18:26:36;7.07;;;2.90;;
39880;SDS011;25554;44.954;10.068;2022-09-20T18:31:34;8.27;;;2.92;;
39880;SDS011;25554;44.954;10.068;2022-09-20T18:34:02;6.28;;;2.47;;
39880;SDS011;25554;44.954;10.068;2022-09-20T18:36:30;6.05;;;3.20;;
39880;SDS011;25554;44.954;10.068;2022-09-20T18:38:59;7.22;;;3.05;;
39880;SDS011;25554;44.954;10.068;2022-09-20T18:41:29;4.57;;;2.20;;
39880;SDS011;25554;44.954;10.068;2022-09-20T18:43:58;7.07;;;2.67;;
39880;SDS011;25554;44.954;10.068;2022-09-20T18:46:26;8.75;;;2.70;;
39880;SDS011;25554;44.954;10.068;2022-09-20T18:48:59;7.25;;;2.67;;
39880;SDS011;25554;44.954;10.068;2022-09-20T18:51:29;8.65;;;2.60;;
39880;SDS011;25554;44.954;10.068;2022-09-20T18:53:56;4.20;;;2.50;;
39880;SDS011;25554;44.954;10.068;2022-09-20T18:56:24;6.68;;;2.60;;
39880;SDS011;25554;44.954;10.068;2022-09-20T18:58:55;4.85;;;2.20;;
39880;SDS011;25554;44.954;10.068;2022-09-20T19:12:19;6.38;;;3.45;;
39880;SDS011;25554;44.954;10.068;2022-09-20T19:26:23;10.18;;;4.38;;
39880;SDS011;25554;44.954;10.068;2022-09-20T19:28:55;7.20;;;3.20;;
39880;SDS011;25554;44.954;10.068;2022-09-20T19:31:28;11.48;;;4.60;;
39880;SDS011;25554;44.954;10.068;2022-09-20T19:33:58;7.82;;;3.35;;
39880;SDS011;25554;44.954;10.068;2022-09-20T19:36:44;10.90;;;3.13;;
39880;SDS011;25554;44.954;10.068;2022-09-20T19:44:52;10.63;;;5.22;;
39880;SDS011;25554;44.954;10.068;2022-09-20T19:47:53;13.88;;;6.80;;
39880;SDS011;25554;44.954;10.068;2022-09-20T19:50:40;11.52;;;8.10;;
39880;SDS011;25554;44.954;10.068;2022-09-20T19:53:12;18.35;;;10.70;;
39880;SDS011;25554;44.954;10.068;2022-09-20T19:55:41;14.00;;;7.30;;
39880;SDS011;25554;44.954;10.068;2022-09-20T19:58:12;6.07;;;3.75;;
39880;SDS011;25554;44.954;10.068;2022-09-20T20:00:41;5.10;;;2.65;;
39880;SDS011;25554;44.954;10.068;2022-09-20T20:03:10;7.70;;;2.72;;
39880;SDS011;25554;44.954;10.068;2022-09-20T20:05:38;9.68;;;2.85;;
39880;SDS011;25554;44.954;10.068;2022-09-20T20:08:14;5.43;;;1.88;;
39880;SDS011;25554;44.954;10.068;2022-09-20T20:16:59;7.18;;;3.15;;
39880;SDS011;25554;44.954;10.068;2022-09-20T20:24:54;6.72;;;2.40;;
39880;SDS011;25554;44.954;10.068;2022-09-20T20:27:21;4.47;;;2.33;;
39880;SDS011;25554;44.954;10.068;2022-09-20T20:29:48;2.38;;;1.92;;
39880;SDS011;25554;44.954;10.068;2022-09-20T20:32:14;5.65;;;2.47;;
39880;SDS011;25554;44.954;10.068;2022-09-20T20:34:41;5.38;;;2.45;;
39880;SDS011;25554;44.954;10.068;2022-09-20T20:37:07;5.57;;;2.35;;
39880;SDS011;25554;44.954;10.068;2022-09-20T20:39:34;4.72;;;2.22;;
39880;SDS011;25554;44.954;10.068;2022-09-20T20:42:01;3.88;;;2.63;;
39880;SDS011;25554;44.954;10.068;2022-09-20T20:44:31;7.22;;;2.72;;
39880;SDS011;25554;44.954;10.068;2022-09-20T20:46:59;4.07;;;2.08;;
39880;SDS011;25554;44.954;10.068;2022-09-20T20:49:32;3.08;;;2.20;;
39880;SDS011;25554;44.954;10.068;2022-09-20T20:51:58;8.65;;;2.60;;
39880;SDS011;25554;44.954;10.068;2022-09-20T20:54:29;6.88;;;2.85;;
39880;SDS011;25554;44.954;10.068;2022-09-20T20:56:56;4.32;;;3.20;;
39880;SDS011;25554;44.954;10.068;2022-09-20T20:59:23;4.07;;;2.92;;
39880;SDS011;25554;44.954;10.068;2022-09-20T21:01:50;4.63;;;2.78;;
39880;SDS011;25554;44.954;10.068;2022-09-20T21:04:16;6.00;;;2.95;;
39880;SDS011;25554;44.954;10.068;2022-09-20T21:06:42;4.35;;;3.08;;
39880;SDS011;25554;44.954;10.068;2022-09-20T21:09:09;4.97;;;2.78;;
39880;SDS011;25554;44.954;10.068;2022-09-20T21:11:37;3.33;;;2.80;;
39880;SDS011;25554;44.954;10.068;2022-09-20T21:14:08;4.20;;;3.25;;
39880;SDS011;25554;44.954;10.068;2022-09-20T21:16:38;8.73;;;3.42;;
39880;SDS011;25554;44.954;10.068;2022-09-20T21:19:07;4.47;;;3.53;;
39880;SDS011;25554;44.954;10.068;2022-09-20T21:21:38;6.53;;;3.40;;
39880;SDS011;25554;44.954;10.068;2022-09-20T21:24:07;4.40;;;3.33;;
39880;SDS011;25554;44.954;10.068;2022-09-20T21:26:35;6.60;;;3.85;;
39880;SDS011;25554;44.954;10.068;2022-09-20T21:29:03;5.63;;;3.25;;
39880;SDS011;25554;44.954;10.068;2022-09-20T21:31:36;6.63;;;3.72;;
39880;SDS011;25554;44.954;10.068;2022-09-20T21:34:06;8.07;;;4.47;;
39880;SDS011;25554;44.954;10.068;2022-09-20T21:36:35;5.63;;;3.67;;
39880;SDS011;25554;44.954;10.068;2022-09-20T21:39:02;4.28;;;3.55;;
39880;SDS011;25554;44.954;10.068;2022-09-20T21:41:30;6.55;;;4.10;;
39880;SDS011;25554;44.954;10.068;2022-09-20T21:43:59;8.27;;;5.70;;
39880;SDS011;25554;44.954;10.068;2022-09-20T21:46:31;7.57;;;5.20;;
39880;SDS011;25554;44.954;10.068;2022-09-20T21:48:59;8.02;;;5.53;;
39880;SDS011;25554;44.954;10.068;2022-09-20T21:51:28;6.40;;;5.65;;
39880;SDS011;25554;44.954;10.068;2022-09-20T21:53:56;9.18;;;6.30;;
39880;SDS011;25554;44.954;10.068;2022-09-20T21:56:24;8.77;;;6.40;;
39880;SDS011;25554;44.954;10.068;2022-09-20T21:58:53;7.90;;;5.63;;
39880;SDS011;25554;44.954;10.068;2022-09-20T22:01:20;8.13;;;6.00;;
39880;SDS011;25554;44.954;10.068;2022-09-20T22:03:49;9.63;;;5.90;;
39880;SDS011;25554;44.954;10.068;2022-09-20T22:06:20;11.02;;;7.00;;
39880;SDS011;25554;44.954;10.068;2022-09-20T22:08:57;12.98;;;6.72;;
39880;SDS011;25554;44.954;10.068;2022-09-20T22:11:32;10.77;;;5.82;;
39880;SDS011;25554;44.954;10.068;2022-09-20T22:14:00;8.93;;;5.80;;